sensor_id;sensor_type;location;lat;lon;timestamp;temperature;humidity
16505;HTU21D;8365;51.030;4.696;2022-07-29T00:00:47;20.96;78.30
16505;HTU21D;8365;51.030;4.696;2022-07-29T00:03:18;20.91;78.75
16505;HTU21D;8365;51.030;4.696;2022-07-29T00:05:48;20.51;81.41
16505;HTU21D;8365;51.030;4.696;2022-07-29T00:08:19;20.79;79.66
16505;HTU21D;8365;51.030;4.696;2022-07-29T00:10:50;20.76;79.36
16505;HTU21D;8365;51.030;4.696;2022-07-29T00:13:20;20.71;80.10
16505;HTU21D;8365;51.030;4.696;2022-07-29T00:15:51;20.74;80.34
16505;HTU21D;8365;51.030;4.696;2022-07-29T00:18:21;20.68;80.52
16505;HTU21D;8365;51.030;4.696;2022-07-29T00:20:51;20.64;81.30
16505;HTU21D;8365;51.030;4.696;2022-07-29T00:23:22;20.63;81.34
16505;HTU21D;8365;51.030;4.696;2022-07-29T00:25:52;20.64;81.65
16505;HTU21D;8365;51.030;4.696;2022-07-29T00:28:23;20.60;81.60
16505;HTU21D;8365;51.030;4.696;2022-07-29T00:30:53;20.60;80.87
16505;HTU21D;8365;51.030;4.696;2022-07-29T00:33:24;20.59;81.23
16505;HTU21D;8365;51.030;4.696;2022-07-29T00:35:57;20.65;80.60
16505;HTU21D;8365;51.030;4.696;2022-07-29T00:38:27;20.63;80.69
16505;HTU21D;8365;51.030;4.696;2022-07-29T00:40:58;20.62;81.23
16505;HTU21D;8365;51.030;4.696;2022-07-29T00:43:28;20.59;81.41
16505;HTU21D;8365;51.030;4.696;2022-07-29T00:45:59;20.61;80.75
16505;HTU21D;8365;51.030;4.696;2022-07-29T00:48:29;20.56;82.08
16505;HTU21D;8365;51.030;4.696;2022-07-29T00:51:01;20.58;81.23
16505;HTU21D;8365;51.030;4.696;2022-07-29T00:53:33;20.64;80.66
16505;HTU21D;8365;51.030;4.696;2022-07-29T00:56:08;20.58;81.14
16505;HTU21D;8365;51.030;4.696;2022-07-29T00:58:38;20.48;81.94
16505;HTU21D;8365;51.030;4.696;2022-07-29T01:01:09;20.56;81.10
16505;HTU21D;8365;51.030;4.696;2022-07-29T01:03:39;20.43;81.69
16505;HTU21D;8365;51.030;4.696;2022-07-29T01:06:10;20.32;82.28
16505;HTU21D;8365;51.030;4.696;2022-07-29T01:08:40;20.50;81.14
16505;HTU21D;8365;51.030;4.696;2022-07-29T01:11:12;20.40;81.94
16505;HTU21D;8365;51.030;4.696;2022-07-29T01:13:44;20.49;80.73
16505;HTU21D;8365;51.030;4.696;2022-07-29T01:16:21;20.27;82.29
16505;HTU21D;8365;51.030;4.696;2022-07-29T01:19:13;20.42;81.72
16505;HTU21D;8365;51.030;4.696;2022-07-29T01:21:55;20.50;81.47
16505;HTU21D;8365;51.030;4.696;2022-07-29T01:24:46;20.37;81.81
16505;HTU21D;8365;51.030;4.696;2022-07-29T01:30:22;20.36;81.81
16505;HTU21D;8365;51.030;4.696;2022-07-29T01:33:11;20.33;82.30
16505;HTU21D;8365;51.030;4.696;2022-07-29T01:36:10;20.17;83.31
16505;HTU21D;8365;51.030;4.696;2022-07-29T01:38:42;20.18;83.42
16505;HTU21D;8365;51.030;4.696;2022-07-29T01:41:17;20.24;83.24
16505;HTU21D;8365;51.030;4.696;2022-07-29T01:43:53;20.27;82.75
16505;HTU21D;8365;51.030;4.696;2022-07-29T01:46:31;20.20;83.15
16505;HTU21D;8365;51.030;4.696;2022-07-29T01:49:16;20.31;82.40
16505;HTU21D;8365;51.030;4.696;2022-07-29T01:51:53;20.22;84.03
16505;HTU21D;8365;51.030;4.696;2022-07-29T01:54:35;20.20;83.42
16505;HTU21D;8365;51.030;4.696;2022-07-29T01:57:07;20.28;83.11
16505;HTU21D;8365;51.030;4.696;2022-07-29T01:59:40;20.17;83.63
16505;HTU21D;8365;51.030;4.696;2022-07-29T02:02:14;20.15;83.97
16505;HTU21D;8365;51.030;4.696;2022-07-29T02:04:48;20.15;83.97
16505;HTU21D;8365;51.030;4.696;2022-07-29T02:07:21;20.03;84.26
16505;HTU21D;8365;51.030;4.696;2022-07-29T02:09:53;19.91;85.39
16505;HTU21D;8365;51.030;4.696;2022-07-29T02:12:25;19.92;85.58
16505;HTU21D;8365;51.030;4.696;2022-07-29T02:14:59;19.83;87.28
16505;HTU21D;8365;51.030;4.696;2022-07-29T02:17:43;19.88;86.92
16505;HTU21D;8365;51.030;4.696;2022-07-29T02:20:15;19.75;87.61
16505;HTU21D;8365;51.030;4.696;2022-07-29T02:22:47;19.73;87.88
16505;HTU21D;8365;51.030;4.696;2022-07-29T02:25:20;19.74;87.86
16505;HTU21D;8365;51.030;4.696;2022-07-29T02:27:52;19.68;88.05
16505;HTU21D;8365;51.030;4.696;2022-07-29T02:30:23;19.66;87.61
16505;HTU21D;8365;51.030;4.696;2022-07-29T02:32:56;19.61;87.54
16505;HTU21D;8365;51.030;4.696;2022-07-29T02:35:27;19.56;89.01
16505;HTU21D;8365;51.030;4.696;2022-07-29T02:37:57;19.61;88.73
16505;HTU21D;8365;51.030;4.696;2022-07-29T02:40:46;19.53;89.08
16505;HTU21D;8365;51.030;4.696;2022-07-29T02:43:19;19.48;90.15
16505;HTU21D;8365;51.030;4.696;2022-07-29T02:45:52;19.35;91.15
16505;HTU21D;8365;51.030;4.696;2022-07-29T02:48:32;19.15;91.98
16505;HTU21D;8365;51.030;4.696;2022-07-29T02:51:23;19.01;93.22
16505;HTU21D;8365;51.030;4.696;2022-07-29T02:53:56;18.99;93.77
16505;HTU21D;8365;51.030;4.696;2022-07-29T02:56:28;18.69;95.48
16505;HTU21D;8365;51.030;4.696;2022-07-29T02:59:02;18.82;94.50
16505;HTU21D;8365;51.030;4.696;2022-07-29T03:01:34;18.69;95.72
16505;HTU21D;8365;51.030;4.696;2022-07-29T03:04:05;18.29;98.05
16505;HTU21D;8365;51.030;4.696;2022-07-29T03:06:37;18.34;97.46
16505;HTU21D;8365;51.030;4.696;2022-07-29T03:09:10;18.37;97.23
16505;HTU21D;8365;51.030;4.696;2022-07-29T03:11:42;18.49;97.16
16505;HTU21D;8365;51.030;4.696;2022-07-29T03:14:13;18.43;97.07
16505;HTU21D;8365;51.030;4.696;2022-07-29T03:16:44;18.43;97.07
16505;HTU21D;8365;51.030;4.696;2022-07-29T03:19:16;18.37;97.27
16505;HTU21D;8365;51.030;4.696;2022-07-29T03:21:50;18.30;97.49
16505;HTU21D;8365;51.030;4.696;2022-07-29T03:24:34;18.10;99.57
16505;HTU21D;8365;51.030;4.696;2022-07-29T03:27:05;18.09;99.58
16505;HTU21D;8365;51.030;4.696;2022-07-29T03:29:35;17.94;99.74
16505;HTU21D;8365;51.030;4.696;2022-07-29T03:32:06;18.12;98.74
16505;HTU21D;8365;51.030;4.696;2022-07-29T03:34:37;18.18;98.37
16505;HTU21D;8365;51.030;4.696;2022-07-29T03:37:10;18.15;98.45
16505;HTU21D;8365;51.030;4.696;2022-07-29T03:39:41;18.21;98.67
16505;HTU21D;8365;51.030;4.696;2022-07-29T03:42:16;18.23;98.86
16505;HTU21D;8365;51.030;4.696;2022-07-29T03:44:49;18.22;98.62
16505;HTU21D;8365;51.030;4.696;2022-07-29T03:47:26;18.18;98.01
16505;HTU21D;8365;51.030;4.696;2022-07-29T03:50:02;18.09;99.07
16505;HTU21D;8365;51.030;4.696;2022-07-29T03:52:35;17.99;100.18
16505;HTU21D;8365;51.030;4.696;2022-07-29T03:55:07;17.85;100.01
16505;HTU21D;8365;51.030;4.696;2022-07-29T03:57:39;17.78;101.81
16505;HTU21D;8365;51.030;4.696;2022-07-29T04:00:10;17.90;101.23
16505;HTU21D;8365;51.030;4.696;2022-07-29T04:02:43;17.89;101.51
16505;HTU21D;8365;51.030;4.696;2022-07-29T04:05:18;17.91;101.25
16505;HTU21D;8365;51.030;4.696;2022-07-29T04:07:49;17.91;100.73
16505;HTU21D;8365;51.030;4.696;2022-07-29T04:10:19;17.90;101.23
16505;HTU21D;8365;51.030;4.696;2022-07-29T04:12:50;17.81;102.19
16505;HTU21D;8365;51.030;4.696;2022-07-29T04:15:20;17.85;101.23
16505;HTU21D;8365;51.030;4.696;2022-07-29T04:17:54;17.92;101.25
16505;HTU21D;8365;51.030;4.696;2022-07-29T04:20:24;17.94;101.51
16505;HTU21D;8365;51.030;4.696;2022-07-29T04:22:55;17.93;101.70
16505;HTU21D;8365;51.030;4.696;2022-07-29T04:25:26;17.92;102.03
16505;HTU21D;8365;51.030;4.696;2022-07-29T04:27:56;17.87;102.79
16505;HTU21D;8365;51.030;4.696;2022-07-29T04:30:37;17.90;102.09
16505;HTU21D;8365;51.030;4.696;2022-07-29T04:33:07;17.88;102.50
16505;HTU21D;8365;51.030;4.696;2022-07-29T04:35:38;17.81;102.98
16505;HTU21D;8365;51.030;4.696;2022-07-29T04:38:08;17.94;102.90
16505;HTU21D;8365;51.030;4.696;2022-07-29T04:40:39;17.94;102.53
16505;HTU21D;8365;51.030;4.696;2022-07-29T04:43:09;17.82;102.47
16505;HTU21D;8365;51.030;4.696;2022-07-29T04:45:40;17.83;103.49
16505;HTU21D;8365;51.030;4.696;2022-07-29T04:48:10;17.94;102.96
16505;HTU21D;8365;51.030;4.696;2022-07-29T04:50:41;18.03;102.41
16505;HTU21D;8365;51.030;4.696;2022-07-29T04:53:11;18.15;102.47
16505;HTU21D;8365;51.030;4.696;2022-07-29T04:55:41;18.14;102.38
16505;HTU21D;8365;51.030;4.696;2022-07-29T04:58:12;18.39;101.04
16505;HTU21D;8365;51.030;4.696;2022-07-29T05:00:42;18.24;102.04
16505;HTU21D;8365;51.030;4.696;2022-07-29T05:03:13;18.22;101.41
16505;HTU21D;8365;51.030;4.696;2022-07-29T05:05:43;18.34;101.19
16505;HTU21D;8365;51.030;4.696;2022-07-29T05:08:16;18.38;100.96
16505;HTU21D;8365;51.030;4.696;2022-07-29T05:10:47;18.40;100.59
16505;HTU21D;8365;51.030;4.696;2022-07-29T05:13:20;18.48;100.99
16505;HTU21D;8365;51.030;4.696;2022-07-29T05:15:50;18.46;101.43
16505;HTU21D;8365;51.030;4.696;2022-07-29T05:18:20;18.52;100.38
16505;HTU21D;8365;51.030;4.696;2022-07-29T05:20:51;18.56;100.90
16505;HTU21D;8365;51.030;4.696;2022-07-29T05:23:22;18.66;100.34
16505;HTU21D;8365;51.030;4.696;2022-07-29T05:25:52;18.67;101.41
16505;HTU21D;8365;51.030;4.696;2022-07-29T05:28:22;18.82;100.81
16505;HTU21D;8365;51.030;4.696;2022-07-29T05:30:53;18.85;100.88
16505;HTU21D;8365;51.030;4.696;2022-07-29T05:33:23;18.93;99.99
16505;HTU21D;8365;51.030;4.696;2022-07-29T05:35:54;19.01;100.32
16505;HTU21D;8365;51.030;4.696;2022-07-29T05:38:24;19.15;99.16
16505;HTU21D;8365;51.030;4.696;2022-07-29T05:40:57;19.06;99.93
16505;HTU21D;8365;51.030;4.696;2022-07-29T05:43:29;19.22;99.43
16505;HTU21D;8365;51.030;4.696;2022-07-29T05:46:00;19.17;99.75
16505;HTU21D;8365;51.030;4.696;2022-07-29T05:48:30;18.89;101.36
16505;HTU21D;8365;51.030;4.696;2022-07-29T05:51:01;18.82;101.41
16505;HTU21D;8365;51.030;4.696;2022-07-29T05:53:32;18.78;100.93
16505;HTU21D;8365;51.030;4.696;2022-07-29T05:56:03;18.83;101.44
16505;HTU21D;8365;51.030;4.696;2022-07-29T05:58:35;18.67;102.38
16505;HTU21D;8365;51.030;4.696;2022-07-29T06:01:06;18.68;100.83
16505;HTU21D;8365;51.030;4.696;2022-07-29T06:03:36;18.58;102.51
16505;HTU21D;8365;51.030;4.696;2022-07-29T06:06:08;18.73;102.08
16505;HTU21D;8365;51.030;4.696;2022-07-29T06:08:39;18.80;102.43
16505;HTU21D;8365;51.030;4.696;2022-07-29T06:11:11;18.99;101.26
16505;HTU21D;8365;51.030;4.696;2022-07-29T06:13:44;19.16;100.52
16505;HTU21D;8365;51.030;4.696;2022-07-29T06:16:15;19.27;100.07
16505;HTU21D;8365;51.030;4.696;2022-07-29T06:18:45;19.56;98.81
16505;HTU21D;8365;51.030;4.696;2022-07-29T06:21:16;19.65;97.13
16505;HTU21D;8365;51.030;4.696;2022-07-29T06:23:47;19.81;97.06
16505;HTU21D;8365;51.030;4.696;2022-07-29T06:26:17;19.79;97.19
16505;HTU21D;8365;51.030;4.696;2022-07-29T06:28:48;20.03;96.39
16505;HTU21D;8365;51.030;4.696;2022-07-29T06:31:18;19.98;95.72
16505;HTU21D;8365;51.030;4.696;2022-07-29T06:33:49;19.97;95.61
16505;HTU21D;8365;51.030;4.696;2022-07-29T06:36:19;20.05;96.62
16505;HTU21D;8365;51.030;4.696;2022-07-29T06:38:50;19.91;95.42
16505;HTU21D;8365;51.030;4.696;2022-07-29T06:41:20;20.11;95.38
16505;HTU21D;8365;51.030;4.696;2022-07-29T06:43:51;20.01;96.08
16505;HTU21D;8365;51.030;4.696;2022-07-29T06:46:21;19.94;96.47
16505;HTU21D;8365;51.030;4.696;2022-07-29T06:48:52;20.03;95.85
16505;HTU21D;8365;51.030;4.696;2022-07-29T06:51:22;19.90;96.95
16505;HTU21D;8365;51.030;4.696;2022-07-29T06:53:53;19.94;97.12
16505;HTU21D;8365;51.030;4.696;2022-07-29T06:56:24;20.06;96.65
16505;HTU21D;8365;51.030;4.696;2022-07-29T06:58:55;20.21;95.40
16505;HTU21D;8365;51.030;4.696;2022-07-29T07:01:25;20.36;95.06
16505;HTU21D;8365;51.030;4.696;2022-07-29T07:03:56;20.49;95.33
16505;HTU21D;8365;51.030;4.696;2022-07-29T07:06:26;20.44;96.07
16505;HTU21D;8365;51.030;4.696;2022-07-29T07:08:57;20.42;94.88
16505;HTU21D;8365;51.030;4.696;2022-07-29T07:11:27;20.53;95.72
16505;HTU21D;8365;51.030;4.696;2022-07-29T07:13:58;20.63;94.43
16505;HTU21D;8365;51.030;4.696;2022-07-29T07:16:28;20.73;93.31
16505;HTU21D;8365;51.030;4.696;2022-07-29T07:18:59;20.63;94.75
16505;HTU21D;8365;51.030;4.696;2022-07-29T07:21:30;20.77;93.14
16505;HTU21D;8365;51.030;4.696;2022-07-29T07:24:00;20.74;94.39
16505;HTU21D;8365;51.030;4.696;2022-07-29T07:26:31;20.86;93.73
16505;HTU21D;8365;51.030;4.696;2022-07-29T07:29:04;20.73;94.20
16505;HTU21D;8365;51.030;4.696;2022-07-29T07:31:36;20.89;93.79
16505;HTU21D;8365;51.030;4.696;2022-07-29T07:34:06;20.87;93.53
16505;HTU21D;8365;51.030;4.696;2022-07-29T07:36:37;20.90;93.34
16505;HTU21D;8365;51.030;4.696;2022-07-29T07:39:07;21.16;92.57
16505;HTU21D;8365;51.030;4.696;2022-07-29T07:41:38;21.36;91.93
16505;HTU21D;8365;51.030;4.696;2022-07-29T07:44:08;21.44;90.75
16505;HTU21D;8365;51.030;4.696;2022-07-29T07:46:38;21.61;90.74
16505;HTU21D;8365;51.030;4.696;2022-07-29T07:49:09;21.25;92.24
16505;HTU21D;8365;51.030;4.696;2022-07-29T07:51:39;21.11;93.65
16505;HTU21D;8365;51.030;4.696;2022-07-29T07:54:10;21.20;92.77
16505;HTU21D;8365;51.030;4.696;2022-07-29T07:56:40;21.43;92.79
16505;HTU21D;8365;51.030;4.696;2022-07-29T07:59:13;21.57;91.87
16505;HTU21D;8365;51.030;4.696;2022-07-29T08:01:43;21.80;90.92
16505;HTU21D;8365;51.030;4.696;2022-07-29T08:04:14;21.98;90.39
16505;HTU21D;8365;51.030;4.696;2022-07-29T08:06:44;22.14;90.15
16505;HTU21D;8365;51.030;4.696;2022-07-29T08:09:14;22.19;88.81
16505;HTU21D;8365;51.030;4.696;2022-07-29T08:11:47;22.49;87.83
16505;HTU21D;8365;51.030;4.696;2022-07-29T08:14:18;22.52;88.10
16505;HTU21D;8365;51.030;4.696;2022-07-29T08:16:49;22.60;87.90
16505;HTU21D;8365;51.030;4.696;2022-07-29T08:19:19;22.58;86.45
16505;HTU21D;8365;51.030;4.696;2022-07-29T08:21:50;22.79;86.83
16505;HTU21D;8365;51.030;4.696;2022-07-29T08:24:22;22.95;84.31
16505;HTU21D;8365;51.030;4.696;2022-07-29T08:27:12;23.14;84.57
16505;HTU21D;8365;51.030;4.696;2022-07-29T08:29:43;23.23;85.09
16505;HTU21D;8365;51.030;4.696;2022-07-29T08:32:14;23.36;84.38
16505;HTU21D;8365;51.030;4.696;2022-07-29T08:34:44;23.59;82.97
16505;HTU21D;8365;51.030;4.696;2022-07-29T08:37:16;23.71;82.77
16505;HTU21D;8365;51.030;4.696;2022-07-29T08:39:46;23.16;84.78
16505;HTU21D;8365;51.030;4.696;2022-07-29T08:42:17;23.11;85.70
16505;HTU21D;8365;51.030;4.696;2022-07-29T08:44:48;22.94;86.58
16505;HTU21D;8365;51.030;4.696;2022-07-29T08:47:18;23.22;84.62
16505;HTU21D;8365;51.030;4.696;2022-07-29T08:49:51;23.57;83.06
16505;HTU21D;8365;51.030;4.696;2022-07-29T08:52:25;23.90;81.99
16505;HTU21D;8365;51.030;4.696;2022-07-29T08:54:56;24.01;82.01
16505;HTU21D;8365;51.030;4.696;2022-07-29T08:57:27;24.16;81.75
16505;HTU21D;8365;51.030;4.696;2022-07-29T09:00:00;23.98;82.62
16505;HTU21D;8365;51.030;4.696;2022-07-29T09:02:35;23.91;82.17
16505;HTU21D;8365;51.030;4.696;2022-07-29T09:05:09;24.24;81.02
16505;HTU21D;8365;51.030;4.696;2022-07-29T09:07:40;24.64;78.95
16505;HTU21D;8365;51.030;4.696;2022-07-29T09:10:15;24.93;77.30
16505;HTU21D;8365;51.030;4.696;2022-07-29T09:12:46;25.13;76.07
16505;HTU21D;8365;51.030;4.696;2022-07-29T09:15:17;25.06;76.18
16505;HTU21D;8365;51.030;4.696;2022-07-29T09:17:49;25.03;75.46
16505;HTU21D;8365;51.030;4.696;2022-07-29T09:20:21;25.48;72.36
16505;HTU21D;8365;51.030;4.696;2022-07-29T09:22:55;25.65;72.64
16505;HTU21D;8365;51.030;4.696;2022-07-29T09:25:36;25.86;70.55
16505;HTU21D;8365;51.030;4.696;2022-07-29T09:28:07;26.04;71.71
16505;HTU21D;8365;51.030;4.696;2022-07-29T09:30:55;26.24;71.11
16505;HTU21D;8365;51.030;4.696;2022-07-29T09:33:35;26.35;70.21
16505;HTU21D;8365;51.030;4.696;2022-07-29T09:36:08;26.49;69.58
16505;HTU21D;8365;51.030;4.696;2022-07-29T09:38:39;26.54;69.29
16505;HTU21D;8365;51.030;4.696;2022-07-29T09:41:09;26.68;68.82
16505;HTU21D;8365;51.030;4.696;2022-07-29T09:43:40;26.75;64.67
16505;HTU21D;8365;51.030;4.696;2022-07-29T09:46:24;27.07;65.98
16505;HTU21D;8365;51.030;4.696;2022-07-29T09:49:13;27.41;65.53
16505;HTU21D;8365;51.030;4.696;2022-07-29T09:51:44;27.35;64.40
16505;HTU21D;8365;51.030;4.696;2022-07-29T09:54:22;27.27;64.07
16505;HTU21D;8365;51.030;4.696;2022-07-29T09:56:54;27.74;63.33
16505;HTU21D;8365;51.030;4.696;2022-07-29T09:59:25;28.23;61.52
16505;HTU21D;8365;51.030;4.696;2022-07-29T10:01:56;28.37;58.55
16505;HTU21D;8365;51.030;4.696;2022-07-29T10:04:42;29.35;55.32
16505;HTU21D;8365;51.030;4.696;2022-07-29T10:07:13;29.79;53.10
16505;HTU21D;8365;51.030;4.696;2022-07-29T10:09:55;30.87;47.76
16505;HTU21D;8365;51.030;4.696;2022-07-29T10:12:26;31.66;46.22
16505;HTU21D;8365;51.030;4.696;2022-07-29T10:14:57;31.61;44.26
16505;HTU21D;8365;51.030;4.696;2022-07-29T10:17:28;32.49;41.10
16505;HTU21D;8365;51.030;4.696;2022-07-29T10:19:58;33.16;40.08
16505;HTU21D;8365;51.030;4.696;2022-07-29T10:22:29;34.00;37.12
16505;HTU21D;8365;51.030;4.696;2022-07-29T10:25:03;34.77;36.03
16505;HTU21D;8365;51.030;4.696;2022-07-29T10:27:34;35.38;34.29
16505;HTU21D;8365;51.030;4.696;2022-07-29T10:30:06;34.24;35.49
16505;HTU21D;8365;51.030;4.696;2022-07-29T10:41:19;35.18;31.27
16505;HTU21D;8365;51.030;4.696;2022-07-29T10:44:13;34.24;34.60
16505;HTU21D;8365;51.030;4.696;2022-07-29T10:46:45;35.27;32.84
16505;HTU21D;8365;51.030;4.696;2022-07-29T10:49:18;36.23;30.31
16505;HTU21D;8365;51.030;4.696;2022-07-29T10:57:28;37.33;28.66
16505;HTU21D;8365;51.030;4.696;2022-07-29T11:02:47;37.30;26.91
16505;HTU21D;8365;51.030;4.696;2022-07-29T11:05:22;37.73;27.22
16505;HTU21D;8365;51.030;4.696;2022-07-29T11:08:17;37.88;26.53
16505;HTU21D;8365;51.030;4.696;2022-07-29T11:16:18;38.07;26.11
16505;HTU21D;8365;51.030;4.696;2022-07-29T11:21:43;37.77;26.62
16505;HTU21D;8365;51.030;4.696;2022-07-29T11:24:15;37.05;26.27
16505;HTU21D;8365;51.030;4.696;2022-07-29T11:29:39;36.59;25.91
16505;HTU21D;8365;51.030;4.696;2022-07-29T11:32:13;36.11;27.45
16505;HTU21D;8365;51.030;4.696;2022-07-29T11:34:46;34.65;28.79
16505;HTU21D;8365;51.030;4.696;2022-07-29T11:37:18;36.23;27.23
16505;HTU21D;8365;51.030;4.696;2022-07-29T11:45:13;37.90;25.21
16505;HTU21D;8365;51.030;4.696;2022-07-29T11:50:36;37.92;23.66
16505;HTU21D;8365;51.030;4.696;2022-07-29T11:53:11;37.99;24.36
16505;HTU21D;8365;51.030;4.696;2022-07-29T11:55:42;36.98;25.74
16505;HTU21D;8365;51.030;4.696;2022-07-29T11:58:13;38.29;24.63
16505;HTU21D;8365;51.030;4.696;2022-07-29T12:00:46;38.88;24.31
16505;HTU21D;8365;51.030;4.696;2022-07-29T12:03:28;37.88;24.86
16505;HTU21D;8365;51.030;4.696;2022-07-29T12:05:59;39.32;22.38
16505;HTU21D;8365;51.030;4.696;2022-07-29T12:08:29;40.47;21.02
16505;HTU21D;8365;51.030;4.696;2022-07-29T12:11:00;40.75;20.30
16505;HTU21D;8365;51.030;4.696;2022-07-29T12:13:38;41.05;19.75
16505;HTU21D;8365;51.030;4.696;2022-07-29T12:16:11;40.31;21.56
16505;HTU21D;8365;51.030;4.696;2022-07-29T12:18:42;39.91;21.34
16505;HTU21D;8365;51.030;4.696;2022-07-29T12:21:12;41.11;19.93
16505;HTU21D;8365;51.030;4.696;2022-07-29T12:23:52;40.71;19.37
16505;HTU21D;8365;51.030;4.696;2022-07-29T12:26:23;41.36;18.99
16505;HTU21D;8365;51.030;4.696;2022-07-29T12:28:53;40.03;20.47
16505;HTU21D;8365;51.030;4.696;2022-07-29T12:31:24;39.02;21.43
16505;HTU21D;8365;51.030;4.696;2022-07-29T12:33:55;39.72;21.34
16505;HTU21D;8365;51.030;4.696;2022-07-29T12:36:25;39.92;21.45
16505;HTU21D;8365;51.030;4.696;2022-07-29T12:38:58;39.91;20.99
16505;HTU21D;8365;51.030;4.696;2022-07-29T12:41:29;39.51;22.10
16505;HTU21D;8365;51.030;4.696;2022-07-29T12:44:00;38.37;23.40
16505;HTU21D;8365;51.030;4.696;2022-07-29T12:46:31;37.30;24.25
16505;HTU21D;8365;51.030;4.696;2022-07-29T12:49:01;36.87;24.94
16505;HTU21D;8365;51.030;4.696;2022-07-29T12:51:34;36.11;26.35
16505;HTU21D;8365;51.030;4.696;2022-07-29T12:54:13;36.67;25.20
16505;HTU21D;8365;51.030;4.696;2022-07-29T12:56:44;36.02;25.79
16505;HTU21D;8365;51.030;4.696;2022-07-29T12:59:20;35.38;26.80
16505;HTU21D;8365;51.030;4.696;2022-07-29T13:01:51;35.65;27.05
16505;HTU21D;8365;51.030;4.696;2022-07-29T13:04:32;36.66;25.28
16505;HTU21D;8365;51.030;4.696;2022-07-29T13:07:06;36.99;23.86
16505;HTU21D;8365;51.030;4.696;2022-07-29T13:09:43;38.66;23.08
16505;HTU21D;8365;51.030;4.696;2022-07-29T13:12:15;39.34;21.66
16505;HTU21D;8365;51.030;4.696;2022-07-29T13:14:49;38.70;21.89
16505;HTU21D;8365;51.030;4.696;2022-07-29T13:17:22;38.89;21.92
16505;HTU21D;8365;51.030;4.696;2022-07-29T13:20:08;37.18;24.11
16505;HTU21D;8365;51.030;4.696;2022-07-29T13:22:42;36.60;24.53
16505;HTU21D;8365;51.030;4.696;2022-07-29T13:25:13;36.49;24.33
16505;HTU21D;8365;51.030;4.696;2022-07-29T13:27:44;34.79;26.74
16505;HTU21D;8365;51.030;4.696;2022-07-29T13:30:16;35.30;25.89
16505;HTU21D;8365;51.030;4.696;2022-07-29T13:32:46;34.90;27.29
16505;HTU21D;8365;51.030;4.696;2022-07-29T13:35:18;34.64;27.00
16505;HTU21D;8365;51.030;4.696;2022-07-29T13:37:51;34.40;28.61
16505;HTU21D;8365;51.030;4.696;2022-07-29T13:40:22;33.79;29.23
16505;HTU21D;8365;51.030;4.696;2022-07-29T13:42:53;33.70;30.10
16505;HTU21D;8365;51.030;4.696;2022-07-29T13:45:23;33.34;31.33
16505;HTU21D;8365;51.030;4.696;2022-07-29T13:47:54;35.06;28.46
16505;HTU21D;8365;51.030;4.696;2022-07-29T13:50:25;36.26;26.42
16505;HTU21D;8365;51.030;4.696;2022-07-29T13:52:55;36.96;25.39
16505;HTU21D;8365;51.030;4.696;2022-07-29T13:55:26;37.73;23.67
16505;HTU21D;8365;51.030;4.696;2022-07-29T13:57:56;38.11;23.81
16505;HTU21D;8365;51.030;4.696;2022-07-29T14:00:26;39.06;22.62
16505;HTU21D;8365;51.030;4.696;2022-07-29T14:02:59;37.63;23.56
16505;HTU21D;8365;51.030;4.696;2022-07-29T14:05:30;37.61;23.54
16505;HTU21D;8365;51.030;4.696;2022-07-29T14:08:00;37.45;24.74
16505;HTU21D;8365;51.030;4.696;2022-07-29T14:10:33;36.53;24.60
16505;HTU21D;8365;51.030;4.696;2022-07-29T14:13:03;35.88;25.97
16505;HTU21D;8365;51.030;4.696;2022-07-29T14:15:34;36.26;25.42
16505;HTU21D;8365;51.030;4.696;2022-07-29T14:18:04;36.85;24.81
16505;HTU21D;8365;51.030;4.696;2022-07-29T14:20:35;37.07;25.35
16505;HTU21D;8365;51.030;4.696;2022-07-29T14:23:06;37.57;24.53
16505;HTU21D;8365;51.030;4.696;2022-07-29T14:25:36;38.28;23.30
16505;HTU21D;8365;51.030;4.696;2022-07-29T14:28:07;36.44;25.25
16505;HTU21D;8365;51.030;4.696;2022-07-29T14:30:37;35.75;25.73
16505;HTU21D;8365;51.030;4.696;2022-07-29T14:33:08;36.17;26.42
16505;HTU21D;8365;51.030;4.696;2022-07-29T14:35:38;35.69;26.42
16505;HTU21D;8365;51.030;4.696;2022-07-29T14:38:09;33.96;28.74
16505;HTU21D;8365;51.030;4.696;2022-07-29T14:40:39;33.06;30.22
16505;HTU21D;8365;51.030;4.696;2022-07-29T14:43:10;32.72;31.91
16505;HTU21D;8365;51.030;4.696;2022-07-29T14:45:41;32.22;32.06
16505;HTU21D;8365;51.030;4.696;2022-07-29T14:48:11;32.16;32.38
16505;HTU21D;8365;51.030;4.696;2022-07-29T14:50:41;32.23;31.74
16505;HTU21D;8365;51.030;4.696;2022-07-29T14:53:12;32.14;32.38
16505;HTU21D;8365;51.030;4.696;2022-07-29T14:55:44;32.61;31.05
16505;HTU21D;8365;51.030;4.696;2022-07-29T14:58:15;33.79;29.00
16505;HTU21D;8365;51.030;4.696;2022-07-29T15:00:45;35.35;28.09
16505;HTU21D;8365;51.030;4.696;2022-07-29T15:03:16;36.31;25.68
16505;HTU21D;8365;51.030;4.696;2022-07-29T15:05:46;36.77;25.24
16505;HTU21D;8365;51.030;4.696;2022-07-29T15:08:17;36.39;25.52
16505;HTU21D;8365;51.030;4.696;2022-07-29T15:10:47;34.63;26.72
16505;HTU21D;8365;51.030;4.696;2022-07-29T15:13:17;34.70;27.83
16505;HTU21D;8365;51.030;4.696;2022-07-29T15:15:48;34.64;27.84
16505;HTU21D;8365;51.030;4.696;2022-07-29T15:18:20;36.00;26.13
16505;HTU21D;8365;51.030;4.696;2022-07-29T15:20:50;35.23;26.82
16505;HTU21D;8365;51.030;4.696;2022-07-29T15:23:20;34.42;26.96
16505;HTU21D;8365;51.030;4.696;2022-07-29T15:25:51;34.07;27.46
16505;HTU21D;8365;51.030;4.696;2022-07-29T15:28:21;33.51;28.68
16505;HTU21D;8365;51.030;4.696;2022-07-29T15:30:52;33.75;28.19
16505;HTU21D;8365;51.030;4.696;2022-07-29T15:33:23;34.48;27.97
16505;HTU21D;8365;51.030;4.696;2022-07-29T15:35:55;35.97;25.90
16505;HTU21D;8365;51.030;4.696;2022-07-29T15:38:26;36.63;24.57
16505;HTU21D;8365;51.030;4.696;2022-07-29T15:40:56;36.80;23.67
16505;HTU21D;8365;51.030;4.696;2022-07-29T15:43:26;35.99;24.53
16505;HTU21D;8365;51.030;4.696;2022-07-29T15:46:00;37.46;22.54
16505;HTU21D;8365;51.030;4.696;2022-07-29T15:48:49;38.18;22.10
16505;HTU21D;8365;51.030;4.696;2022-07-29T15:51:20;37.69;22.93
16505;HTU21D;8365;51.030;4.696;2022-07-29T15:53:50;37.27;23.73
16505;HTU21D;8365;51.030;4.696;2022-07-29T15:56:21;36.96;24.16
16505;HTU21D;8365;51.030;4.696;2022-07-29T15:58:52;37.14;22.75
16505;HTU21D;8365;51.030;4.696;2022-07-29T16:01:22;37.27;23.15
16505;HTU21D;8365;51.030;4.696;2022-07-29T16:03:54;36.84;24.38
16505;HTU21D;8365;51.030;4.696;2022-07-29T16:06:24;36.13;24.86
16505;HTU21D;8365;51.030;4.696;2022-07-29T16:08:55;34.77;26.39
16505;HTU21D;8365;51.030;4.696;2022-07-29T16:11:25;33.33;28.99
16505;HTU21D;8365;51.030;4.696;2022-07-29T16:13:58;33.22;29.58
16505;HTU21D;8365;51.030;4.696;2022-07-29T16:16:29;32.86;30.00
16505;HTU21D;8365;51.030;4.696;2022-07-29T16:19:00;33.19;29.20
16505;HTU21D;8365;51.030;4.696;2022-07-29T16:21:31;34.08;28.48
16505;HTU21D;8365;51.030;4.696;2022-07-29T16:24:03;34.91;27.12
16505;HTU21D;8365;51.030;4.696;2022-07-29T16:26:33;34.69;28.16
16505;HTU21D;8365;51.030;4.696;2022-07-29T16:29:04;34.10;27.74
16505;HTU21D;8365;51.030;4.696;2022-07-29T16:31:34;33.33;28.97
16505;HTU21D;8365;51.030;4.696;2022-07-29T16:34:05;32.30;31.04
16505;HTU21D;8365;51.030;4.696;2022-07-29T16:36:35;32.67;30.42
16505;HTU21D;8365;51.030;4.696;2022-07-29T16:39:06;32.46;31.99
16505;HTU21D;8365;51.030;4.696;2022-07-29T16:41:36;33.29;29.07